sensor_id;sensor_type;location;lat;lon;timestamp;P1;durP1;ratioP1;P2;durP2;ratioP2
47225;SDS011;32965;64.142;-21.912;2023-10-09T00:01:06;23.80;;;4.55;;
47225;SDS011;32965;64.142;-21.912;2023-10-09T00:08:50;25.27;;;4.80;;
47225;SDS011;32965;64.142;-21.912;2023-10-09T00:19:09;26.13;;;3.90;;
47225;SDS011;32965;64.142;-21.912;2023-10-09T00:21:59;22.83;;;4.13;;
47225;SDS011;32965;64.142;-21.912;2023-10-09T00:24:54;22.90;;;5.18;;
47225;SDS011;32965;64.142;-21.912;2023-10-09T00:27:39;19.15;;;4.10;;
47225;SDS011;32965;64.142;-21.912;2023-10-09T00:33:14;22.83;;;4.45;;
47225;SDS011;32965;64.142;-21.912;2023-10-09T00:35:40;22.20;;;4.55;;
47225;SDS011;32965;64.142;-21.912;2023-10-09T00:38:10;21.73;;;4.53;;
47225;SDS011;32965;64.142;-21.912;2023-10-09T00:40:45;31.45;;;5.13;;
47225;SDS011;32965;64.142;-21.912;2023-10-09T00:43:15;23.17;;;4.05;;
47225;SDS011;32965;64.142;-21.912;2023-10-09T00:45:44;29.92;;;4.32;;
47225;SDS011;32965;64.142;-21.912;2023-10-09T00:48:10;30.33;;;5.82;;
47225;SDS011;32965;64.142;-21.912;2023-10-09T00:50:46;21.15;;;5.20;;
47225;SDS011;32965;64.142;-21.912;2023-10-09T00:53:17;17.08;;;4.03;;
47225;SDS011;32965;64.142;-21.912;2023-10-09T00:55:43;25.77;;;4.68;;
47225;SDS011;32965;64.142;-21.912;2023-10-09T01:01:02;22.88;;;4.20;;
47225;SDS011;32965;64.142;-21.912;2023-10-09T01:03:42;25.08;;;5.32;;
47225;SDS011;32965;64.142;-21.912;2023-10-09T01:06:11;32.08;;;4.28;;
47225;SDS011;32965;64.142;-21.912;2023-10-09T01:08:40;22.67;;;5.47;;
47225;SDS011;32965;64.142;-21.912;2023-10-09T01:13:36;25.27;;;4.38;;
47225;SDS011;32965;64.142;-21.912;2023-10-09T01:16:17;21.88;;;5.15;;
47225;SDS011;32965;64.142;-21.912;2023-10-09T01:23:57;26.52;;;4.63;;
47225;SDS011;32965;64.142;-21.912;2023-10-09T01:26:33;32.70;;;5.78;;
47225;SDS011;32965;64.142;-21.912;2023-10-09T01:31:46;21.42;;;4.22;;
47225;SDS011;32965;64.142;-21.912;2023-10-09T01:34:29;22.58;;;5.07;;
47225;SDS011;32965;64.142;-21.912;2023-10-09T01:37:19;25.40;;;4.75;;
47225;SDS011;32965;64.142;-21.912;2023-10-09T01:39:53;29.60;;;5.43;;
47225;SDS011;32965;64.142;-21.912;2023-10-09T01:42:42;26.15;;;5.43;;
47225;SDS011;32965;64.142;-21.912;2023-10-09T01:48:12;22.30;;;4.18;;
47225;SDS011;32965;64.142;-21.912;2023-10-09T01:50:48;29.63;;;5.47;;
47225;SDS011;32965;64.142;-21.912;2023-10-09T01:53:14;32.72;;;6.25;;
47225;SDS011;32965;64.142;-21.912;2023-10-09T01:55:43;27.73;;;5.43;;
47225;SDS011;32965;64.142;-21.912;2023-10-09T01:58:11;31.38;;;5.57;;
47225;SDS011;32965;64.142;-21.912;2023-10-09T02:00:57;22.73;;;5.68;;
47225;SDS011;32965;64.142;-21.912;2023-10-09T02:03:27;25.48;;;5.25;;
47225;SDS011;32965;64.142;-21.912;2023-10-09T02:05:54;29.65;;;5.72;;
47225;SDS011;32965;64.142;-21.912;2023-10-09T02:08:56;28.70;;;5.70;;
47225;SDS011;32965;64.142;-21.912;2023-10-09T02:11:22;29.50;;;5.20;;
47225;SDS011;32965;64.142;-21.912;2023-10-09T02:14:02;27.42;;;4.78;;
47225;SDS011;32965;64.142;-21.912;2023-10-09T02:16:31;24.20;;;5.55;;
47225;SDS011;32965;64.142;-21.912;2023-10-09T02:19:07;30.08;;;4.68;;
47225;SDS011;32965;64.142;-21.912;2023-10-09T02:21:53;27.90;;;5.43;;
47225;SDS011;32965;64.142;-21.912;2023-10-09T02:24:21;28.48;;;6.47;;
47225;SDS011;32965;64.142;-21.912;2023-10-09T02:30:35;29.70;;;6.57;;
47225;SDS011;32965;64.142;-21.912;2023-10-09T02:33:02;27.23;;;5.65;;
47225;SDS011;32965;64.142;-21.912;2023-10-09T02:35:34;26.70;;;5.07;;
47225;SDS011;32965;64.142;-21.912;2023-10-09T02:40:33;33.70;;;6.20;;
47225;SDS011;32965;64.142;-21.912;2023-10-09T02:43:07;33.78;;;6.35;;
47225;SDS011;32965;64.142;-21.912;2023-10-09T02:45:43;35.08;;;6.53;;
47225;SDS011;32965;64.142;-21.912;2023-10-09T02:48:16;29.27;;;7.38;;
47225;SDS011;32965;64.142;-21.912;2023-10-09T02:50:45;42.42;;;6.60;;
47225;SDS011;32965;64.142;-21.912;2023-10-09T02:56:03;40.28;;;6.43;;
47225;SDS011;32965;64.142;-21.912;2023-10-09T02:58:37;34.30;;;6.70;;
47225;SDS011;32965;64.142;-21.912;2023-10-09T03:01:09;30.75;;;6.50;;
47225;SDS011;32965;64.142;-21.912;2023-10-09T03:03:40;45.28;;;6.72;;
47225;SDS011;32965;64.142;-21.912;2023-10-09T03:06:15;32.22;;;6.05;;
47225;SDS011;32965;64.142;-21.912;2023-10-09T03:08:55;34.72;;;6.30;;
47225;SDS011;32965;64.142;-21.912;2023-10-09T03:11:22;32.78;;;5.65;;
47225;SDS011;32965;64.142;-21.912;2023-10-09T03:13:48;44.53;;;8.00;;
47225;SDS011;32965;64.142;-21.912;2023-10-09T03:16:15;34.55;;;5.68;;
47225;SDS011;32965;64.142;-21.912;2023-10-09T03:18:47;36.70;;;6.82;;
47225;SDS011;32965;64.142;-21.912;2023-10-09T03:21:15;39.50;;;7.10;;
47225;SDS011;32965;64.142;-21.912;2023-10-09T03:23:42;34.75;;;7.03;;
47225;SDS011;32965;64.142;-21.912;2023-10-09T03:26:09;42.65;;;7.60;;
47225;SDS011;32965;64.142;-21.912;2023-10-09T03:28:36;42.25;;;7.47;;
47225;SDS011;32965;64.142;-21.912;2023-10-09T03:31:01;37.40;;;5.97;;
47225;SDS011;32965;64.142;-21.912;2023-10-09T03:33:28;37.47;;;6.65;;
47225;SDS011;32965;64.142;-21.912;2023-10-09T03:35:58;38.72;;;6.20;;
47225;SDS011;32965;64.142;-21.912;2023-10-09T03:38:25;41.22;;;7.00;;
47225;SDS011;32965;64.142;-21.912;2023-10-09T03:40:54;37.33;;;6.72;;
47225;SDS011;32965;64.142;-21.912;2023-10-09T03:43:20;46.65;;;7.10;;
47225;SDS011;32965;64.142;-21.912;2023-10-09T03:48:46;39.58;;;6.32;;
47225;SDS011;32965;64.142;-21.912;2023-10-09T03:51:15;33.50;;;5.55;;
47225;SDS011;32965;64.142;-21.912;2023-10-09T03:53:51;34.40;;;6.63;;
47225;SDS011;32965;64.142;-21.912;2023-10-09T03:58:49;30.80;;;4.82;;
47225;SDS011;32965;64.142;-21.912;2023-10-09T04:01:17;35.65;;;6.00;;
47225;SDS011;32965;64.142;-21.912;2023-10-09T04:03:48;28.45;;;4.68;;
47225;SDS011;32965;64.142;-21.912;2023-10-09T04:06:20;27.65;;;5.53;;
47225;SDS011;32965;64.142;-21.912;2023-10-09T04:08:53;27.20;;;4.82;;
47225;SDS011;32965;64.142;-21.912;2023-10-09T04:11:20;39.13;;;6.00;;
47225;SDS011;32965;64.142;-21.912;2023-10-09T04:13:50;29.25;;;6.32;;
47225;SDS011;32965;64.142;-21.912;2023-10-09T04:16:17;33.58;;;5.22;;
47225;SDS011;32965;64.142;-21.912;2023-10-09T04:18:59;26.57;;;5.03;;
47225;SDS011;32965;64.142;-21.912;2023-10-09T04:21:30;22.25;;;5.05;;
47225;SDS011;32965;64.142;-21.912;2023-10-09T04:24:00;27.20;;;5.05;;
47225;SDS011;32965;64.142;-21.912;2023-10-09T04:29:19;19.98;;;3.20;;
47225;SDS011;32965;64.142;-21.912;2023-10-09T04:34:23;26.67;;;3.83;;
47225;SDS011;32965;64.142;-21.912;2023-10-09T04:37:09;22.23;;;4.35;;
47225;SDS011;32965;64.142;-21.912;2023-10-09T04:39:53;23.15;;;4.10;;
47225;SDS011;32965;64.142;-21.912;2023-10-09T04:42:39;18.88;;;3.90;;
47225;SDS011;32965;64.142;-21.912;2023-10-09T04:45:11;25.30;;;4.65;;
47225;SDS011;32965;64.142;-21.912;2023-10-09T04:50:22;16.38;;;4.20;;
47225;SDS011;32965;64.142;-21.912;2023-10-09T04:52:54;25.83;;;5.40;;
47225;SDS011;32965;64.142;-21.912;2023-10-09T04:55:20;23.35;;;4.22;;
47225;SDS011;32965;64.142;-21.912;2023-10-09T04:57:50;25.70;;;5.07;;
47225;SDS011;32965;64.142;-21.912;2023-10-09T05:00:25;21.90;;;4.18;;
47225;SDS011;32965;64.142;-21.912;2023-10-09T05:02:51;22.55;;;4.45;;
47225;SDS011;32965;64.142;-21.912;2023-10-09T05:05:32;29.58;;;4.78;;
47225;SDS011;32965;64.142;-21.912;2023-10-09T05:08:11;25.15;;;4.15;;
47225;SDS011;32965;64.142;-21.912;2023-10-09T05:10:51;28.60;;;5.68;;
47225;SDS011;32965;64.142;-21.912;2023-10-09T05:13:34;21.73;;;4.38;;
47225;SDS011;32965;64.142;-21.912;2023-10-09T05:16:03;25.33;;;4.65;;
47225;SDS011;32965;64.142;-21.912;2023-10-09T05:18:42;24.23;;;4.53;;
47225;SDS011;32965;64.142;-21.912;2023-10-09T05:21:10;35.95;;;4.93;;
47225;SDS011;32965;64.142;-21.912;2023-10-09T05:23:52;22.95;;;4.07;;
47225;SDS011;32965;64.142;-21.912;2023-10-09T05:26:36;28.55;;;4.32;;
47225;SDS011;32965;64.142;-21.912;2023-10-09T05:29:11;30.42;;;4.97;;
47225;SDS011;32965;64.142;-21.912;2023-10-09T05:31:50;24.83;;;3.77;;
47225;SDS011;32965;64.142;-21.912;2023-10-09T05:34:35;28.35;;;4.45;;
47225;SDS011;32965;64.142;-21.912;2023-10-09T05:37:19;28.38;;;4.35;;
47225;SDS011;32965;64.142;-21.912;2023-10-09T05:39:55;20.70;;;4.15;;
47225;SDS011;32965;64.142;-21.912;2023-10-09T05:42:27;27.70;;;4.72;;
47225;SDS011;32965;64.142;-21.912;2023-10-09T05:45:18;27.60;;;4.40;;
47225;SDS011;32965;64.142;-21.912;2023-10-09T05:48:02;27.80;;;4.97;;
47225;SDS011;32965;64.142;-21.912;2023-10-09T05:50:28;21.50;;;3.70;;
47225;SDS011;32965;64.142;-21.912;2023-10-09T05:53:03;30.88;;;4.47;;
47225;SDS011;32965;64.142;-21.912;2023-10-09T05:55:29;25.02;;;5.20;;
47225;SDS011;32965;64.142;-21.912;2023-10-09T05:58:14;29.23;;;3.75;;
47225;SDS011;32965;64.142;-21.912;2023-10-09T06:00:50;26.15;;;4.03;;
47225;SDS011;32965;64.142;-21.912;2023-10-09T06:03:34;18.65;;;3.92;;
47225;SDS011;32965;64.142;-21.912;2023-10-09T06:06:35;19.77;;;3.80;;
47225;SDS011;32965;64.142;-21.912;2023-10-09T06:09:11;16.25;;;2.97;;
47225;SDS011;32965;64.142;-21.912;2023-10-09T06:11:44;22.85;;;3.15;;
47225;SDS011;32965;64.142;-21.912;2023-10-09T06:16:55;20.70;;;3.15;;
47225;SDS011;32965;64.142;-21.912;2023-10-09T06:19:36;13.13;;;2.58;;
47225;SDS011;32965;64.142;-21.912;2023-10-09T06:22:09;12.68;;;2.92;;
47225;SDS011;32965;64.142;-21.912;2023-10-09T06:24:44;15.57;;;2.35;;
47225;SDS011;32965;64.142;-21.912;2023-10-09T06:27:15;13.07;;;2.38;;
47225;SDS011;32965;64.142;-21.912;2023-10-09T06:30:01;19.75;;;3.42;;
47225;SDS011;32965;64.142;-21.912;2023-10-09T06:32:48;24.05;;;3.22;;
47225;SDS011;32965;64.142;-21.912;2023-10-09T06:35:23;20.83;;;3.38;;
47225;SDS011;32965;64.142;-21.912;2023-10-09T06:37:58;16.48;;;3.53;;
47225;SDS011;32965;64.142;-21.912;2023-10-09T06:43:19;20.85;;;3.13;;
47225;SDS011;32965;64.142;-21.912;2023-10-09T06:45:51;17.65;;;3.35;;
47225;SDS011;32965;64.142;-21.912;2023-10-09T06:48:23;14.68;;;2.78;;
47225;SDS011;32965;64.142;-21.912;2023-10-09T06:51:02;19.00;;;2.90;;
47225;SDS011;32965;64.142;-21.912;2023-10-09T06:53:32;25.08;;;3.67;;
47225;SDS011;32965;64.142;-21.912;2023-10-09T06:56:17;18.10;;;3.08;;
47225;SDS011;32965;64.142;-21.912;2023-10-09T06:59:09;19.60;;;4.10;;
47225;SDS011;32965;64.142;-21.912;2023-10-09T07:01:48;20.13;;;2.97;;
47225;SDS011;32965;64.142;-21.912;2023-10-09T07:04:33;25.70;;;3.35;;
47225;SDS011;32965;64.142;-21.912;2023-10-09T07:07:08;15.15;;;3.13;;
47225;SDS011;32965;64.142;-21.912;2023-10-09T07:09:40;18.02;;;3.05;;
47225;SDS011;32965;64.142;-21.912;2023-10-09T07:12:28;17.75;;;2.95;;
47225;SDS011;32965;64.142;-21.912;2023-10-09T07:17:24;18.10;;;3.42;;
47225;SDS011;32965;64.142;-21.912;2023-10-09T07:19:59;20.63;;;3.85;;
47225;SDS011;32965;64.142;-21.912;2023-10-09T07:22:37;13.95;;;2.25;;
47225;SDS011;32965;64.142;-21.912;2023-10-09T07:25:19;14.43;;;2.80;;
47225;SDS011;32965;64.142;-21.912;2023-10-09T07:28:03;24.48;;;3.90;;
47225;SDS011;32965;64.142;-21.912;2023-10-09T07:30:43;20.10;;;3.00;;
47225;SDS011;32965;64.142;-21.912;2023-10-09T07:33:11;18.77;;;3.38;;
47225;SDS011;32965;64.142;-21.912;2023-10-09T07:35:41;16.80;;;3.00;;
47225;SDS011;32965;64.142;-21.912;2023-10-09T07:38:11;18.88;;;2.35;;
47225;SDS011;32965;64.142;-21.912;2023-10-09T07:40:49;19.10;;;3.15;;
47225;SDS011;32965;64.142;-21.912;2023-10-09T07:43:34;12.55;;;2.15;;
47225;SDS011;32965;64.142;-21.912;2023-10-09T07:46:05;16.17;;;2.33;;
47225;SDS011;32965;64.142;-21.912;2023-10-09T07:48:50;17.65;;;2.95;;
47225;SDS011;32965;64.142;-21.912;2023-10-09T07:51:19;20.45;;;3.13;;
47225;SDS011;32965;64.142;-21.912;2023-10-09T07:53:57;15.55;;;3.08;;
47225;SDS011;32965;64.142;-21.912;2023-10-09T07:56:33;14.70;;;2.30;;
47225;SDS011;32965;64.142;-21.912;2023-10-09T07:59:25;10.32;;;2.35;;
47225;SDS011;32965;64.142;-21.912;2023-10-09T08:01:50;15.05;;;2.58;;
47225;SDS011;32965;64.142;-21.912;2023-10-09T08:04:30;15.32;;;2.70;;
47225;SDS011;32965;64.142;-21.912;2023-10-09T08:07:06;15.27;;;3.08;;
47225;SDS011;32965;64.142;-21.912;2023-10-09T08:12:14;12.13;;;2.30;;
47225;SDS011;32965;64.142;-21.912;2023-10-09T08:15:00;15.10;;;3.60;;
47225;SDS011;32965;64.142;-21.912;2023-10-09T08:17:54;15.38;;;2.65;;
47225;SDS011;32965;64.142;-21.912;2023-10-09T08:20:25;14.73;;;2.35;;
47225;SDS011;32965;64.142;-21.912;2023-10-09T08:22:54;15.60;;;3.05;;
47225;SDS011;32965;64.142;-21.912;2023-10-09T08:28:02;21.33;;;2.80;;
47225;SDS011;32965;64.142;-21.912;2023-10-09T08:30:47;16.00;;;3.08;;
47225;SDS011;32965;64.142;-21.912;2023-10-09T08:33:27;12.77;;;2.28;;
47225;SDS011;32965;64.142;-21.912;2023-10-09T08:36:06;18.80;;;2.67;;
47225;SDS011;32965;64.142;-21.912;2023-10-09T08:38:33;13.23;;;1.90;;
47225;SDS011;32965;64.142;-21.912;2023-10-09T08:41:11;9.32;;;1.95;;
47225;SDS011;32965;64.142;-21.912;2023-10-09T08:43:47;10.00;;;1.80;;
47225;SDS011;32965;64.142;-21.912;2023-10-09T08:46:16;14.40;;;2.35;;
47225;SDS011;32965;64.142;-21.912;2023-10-09T08:48:50;12.57;;;1.92;;
47225;SDS011;32965;64.142;-21.912;2023-10-09T08:51:17;19.83;;;2.30;;
47225;SDS011;32965;64.142;-21.912;2023-10-09T08:53:45;16.40;;;2.65;;
47225;SDS011;32965;64.142;-21.912;2023-10-09T08:56:14;8.93;;;1.60;;
47225;SDS011;32965;64.142;-21.912;2023-10-09T08:58:51;16.52;;;2.20;;
47225;SDS011;32965;64.142;-21.912;2023-10-09T09:01:27;11.18;;;1.90;;
47225;SDS011;32965;64.142;-21.912;2023-10-09T09:03:57;16.17;;;2.85;;
47225;SDS011;32965;64.142;-21.912;2023-10-09T09:06:25;14.32;;;2.47;;
47225;SDS011;32965;64.142;-21.912;2023-10-09T09:08:51;18.80;;;2.35;;
47225;SDS011;32965;64.142;-21.912;2023-10-09T09:11:24;15.07;;;2.50;;
47225;SDS011;32965;64.142;-21.912;2023-10-09T09:16:28;12.88;;;2.05;;
47225;SDS011;32965;64.142;-21.912;2023-10-09T09:19:01;12.07;;;2.08;;
47225;SDS011;32965;64.142;-21.912;2023-10-09T09:21:30;13.73;;;2.95;;
47225;SDS011;32965;64.142;-21.912;2023-10-09T09:24:05;16.65;;;2.92;;
47225;SDS011;32965;64.142;-21.912;2023-10-09T09:26:40;20.02;;;3.10;;
47225;SDS011;32965;64.142;-21.912;2023-10-09T09:29:12;17.20;;;2.20;;
47225;SDS011;32965;64.142;-21.912;2023-10-09T09:31:55;13.05;;;2.38;;
47225;SDS011;32965;64.142;-21.912;2023-10-09T09:34:47;16.67;;;3.40;;
47225;SDS011;32965;64.142;-21.912;2023-10-09T09:37:26;20.80;;;2.92;;
47225;SDS011;32965;64.142;-21.912;2023-10-09T09:39:58;16.83;;;2.97;;
47225;SDS011;32965;64.142;-21.912;2023-10-09T09:42:40;13.85;;;2.60;;
47225;SDS011;32965;64.142;-21.912;2023-10-09T09:45:10;18.08;;;2.28;;
47225;SDS011;32965;64.142;-21.912;2023-10-09T09:47:36;10.40;;;1.73;;
47225;SDS011;32965;64.142;-21.912;2023-10-09T09:50:03;15.02;;;1.77;;
47225;SDS011;32965;64.142;-21.912;2023-10-09T09:52:37;13.13;;;2.92;;
47225;SDS011;32965;64.142;-21.912;2023-10-09T09:55:07;16.48;;;2.67;;
47225;SDS011;32965;64.142;-21.912;2023-10-09T09:57:47;19.45;;;3.45;;
47225;SDS011;32965;64.142;-21.912;2023-10-09T10:03:06;17.10;;;2.50;;
47225;SDS011;32965;64.142;-21.912;2023-10-09T10:05:54;17.45;;;2.88;;
47225;SDS011;32965;64.142;-21.912;2023-10-09T10:08:22;14.30;;;3.33;;
47225;SDS011;32965;64.142;-21.912;2023-10-09T10:10:57;14.10;;;2.63;;
47225;SDS011;32965;64.142;-21.912;2023-10-09T10:16:14;21.00;;;2.35;;
47225;SDS011;32965;64.142;-21.912;2023-10-09T10:18:59;21.35;;;2.85;;
47225;SDS011;32965;64.142;-21.912;2023-10-09T10:21:34;16.83;;;2.20;;
47225;SDS011;32965;64.142;-21.912;2023-10-09T10:32:54;12.13;;;1.73;;
47225;SDS011;32965;64.142;-21.912;2023-10-09T10:35:23;11.82;;;2.17;;
47225;SDS011;32965;64.142;-21.912;2023-10-09T10:41:15;10.05;;;2.10;;
47225;SDS011;32965;64.142;-21.912;2023-10-09T10:43:45;22.27;;;2.78;;
47225;SDS011;32965;64.142;-21.912;2023-10-09T10:46:24;22.50;;;2.60;;
47225;SDS011;32965;64.142;-21.912;2023-10-09T10:48:59;17.20;;;3.17;;
47225;SDS011;32965;64.142;-21.912;2023-10-09T10:51:40;15.88;;;2.50;;
47225;SDS011;32965;64.142;-21.912;2023-10-09T10:54:12;13.25;;;2.10;;
47225;SDS011;32965;64.142;-21.912;2023-10-09T10:56:59;14.90;;;2.88;;
47225;SDS011;32965;64.142;-21.912;2023-10-09T10:59:40;19.88;;;2.95;;
47225;SDS011;32965;64.142;-21.912;2023-10-09T11:02:18;14.20;;;2.92;;
47225;SDS011;32965;64.142;-21.912;2023-10-09T11:04:48;12.07;;;2.42;;
47225;SDS011;32965;64.142;-21.912;2023-10-09T11:10:31;13.68;;;1.92;;
47225;SDS011;32965;64.142;-21.912;2023-10-09T11:12:57;11.77;;;1.75;;
47225;SDS011;32965;64.142;-21.912;2023-10-09T11:15:35;9.65;;;2.00;;
47225;SDS011;32965;64.142;-21.912;2023-10-09T11:18:30;12.80;;;2.88;;
47225;SDS011;32965;64.142;-21.912;2023-10-09T11:21:11;16.15;;;2.60;;
47225;SDS011;32965;64.142;-21.912;2023-10-09T11:23:48;11.30;;;1.65;;
47225;SDS011;32965;64.142;-21.912;2023-10-09T11:26:17;14.40;;;1.83;;
47225;SDS011;32965;64.142;-21.912;2023-10-09T11:29:14;7.75;;;1.15;;
47225;SDS011;32965;64.142;-21.912;2023-10-09T11:31:40;9.55;;;1.80;;
47225;SDS011;32965;64.142;-21.912;2023-10-09T11:34:20;10.13;;;1.75;;
47225;SDS011;32965;64.142;-21.912;2023-10-09T11:36:57;14.52;;;2.40;;
47225;SDS011;32965;64.142;-21.912;2023-10-09T11:39:29;7.22;;;1.58;;
47225;SDS011;32965;64.142;-21.912;2023-10-09T11:42:18;16.20;;;2.70;;
47225;SDS011;32965;64.142;-21.912;2023-10-09T11:45:05;10.98;;;2.50;;
47225;SDS011;32965;64.142;-21.912;2023-10-09T11:47:52;16.25;;;2.30;;
47225;SDS011;32965;64.142;-21.912;2023-10-09T11:53:28;15.95;;;2.28;;
47225;SDS011;32965;64.142;-21.912;2023-10-09T11:56:04;16.10;;;2.13;;
47225;SDS011;32965;64.142;-21.912;2023-10-09T11:58:30;15.00;;;2.00;;
47225;SDS011;32965;64.142;-21.912;2023-10-09T12:01:09;13.40;;;1.73;;
47225;SDS011;32965;64.142;-21.912;2023-10-09T12:03:42;13.02;;;2.22;;
47225;SDS011;32965;64.142;-21.912;2023-10-09T12:06:14;10.50;;;2.20;;
47225;SDS011;32965;64.142;-21.912;2023-10-09T12:08:44;14.90;;;2.53;;
47225;SDS011;32965;64.142;-21.912;2023-10-09T12:11:14;18.50;;;2.63;;
47225;SDS011;32965;64.142;-21.912;2023-10-09T12:13:48;9.73;;;1.77;;
47225;SDS011;32965;64.142;-21.912;2023-10-09T12:16:14;10.70;;;2.13;;
47225;SDS011;32965;64.142;-21.912;2023-10-09T12:18:40;13.30;;;2.50;;
47225;SDS011;32965;64.142;-21.912;2023-10-09T12:21:08;13.60;;;2.30;;
47225;SDS011;32965;64.142;-21.912;2023-10-09T12:23:40;13.90;;;2.33;;
47225;SDS011;32965;64.142;-21.912;2023-10-09T12:26:08;13.40;;;2.00;;
47225;SDS011;32965;64.142;-21.912;2023-10-09T12:28:39;15.90;;;2.38;;
47225;SDS011;32965;64.142;-21.912;2023-10-09T12:31:13;14.93;;;2.30;;
47225;SDS011;32965;64.142;-21.912;2023-10-09T12:33:40;16.35;;;2.88;;
47225;SDS011;32965;64.142;-21.912;2023-10-09T12:36:13;17.63;;;3.00;;
47225;SDS011;32965;64.142;-21.912;2023-10-09T12:38:46;17.25;;;2.67;;
47225;SDS011;32965;64.142;-21.912;2023-10-09T12:41:24;14.43;;;2.58;;
47225;SDS011;32965;64.142;-21.912;2023-10-09T12:43:56;18.02;;;2.17;;
47225;SDS011;32965;64.142;-21.912;2023-10-09T12:46:24;13.25;;;2.63;;
47225;SDS011;32965;64.142;-21.912;2023-10-09T12:48:53;12.38;;;2.17;;
47225;SDS011;32965;64.142;-21.912;2023-10-09T12:51:19;15.82;;;2.15;;
47225;SDS011;32965;64.142;-21.912;2023-10-09T12:53:46;18.92;;;2.92;;
47225;SDS011;32965;64.142;-21.912;2023-10-09T12:56:21;13.18;;;2.25;;
47225;SDS011;32965;64.142;-21.912;2023-10-09T12:59:03;19.35;;;2.00;;
47225;SDS011;32965;64.142;-21.912;2023-10-09T13:01:30;16.73;;;2.50;;
47225;SDS011;32965;64.142;-21.912;2023-10-09T13:04:08;12.98;;;2.20;;
47225;SDS011;32965;64.142;-21.912;2023-10-09T13:06:38;16.92;;;2.33;;
47225;SDS011;32965;64.142;-21.912;2023-10-09T13:09:10;11.90;;;2.30;;
47225;SDS011;32965;64.142;-21.912;2023-10-09T13:11:38;15.33;;;2.93;;
47225;SDS011;32965;64.142;-21.912;2023-10-09T13:14:05;19.50;;;2.58;;
47225;SDS011;32965;64.142;-21.912;2023-10-09T13:16:41;16.88;;;2.45;;
47225;SDS011;32965;64.142;-21.912;2023-10-09T13:19:07;17.75;;;2.25;;
47225;SDS011;32965;64.142;-21.912;2023-10-09T13:21:37;14.45;;;2.55;;
47225;SDS011;32965;64.142;-21.912;2023-10-09T13:24:07;16.80;;;2.92;;
47225;SDS011;32965;64.142;-21.912;2023-10-09T13:26:43;16.88;;;2.33;;
47225;SDS011;32965;64.142;-21.912;2023-10-09T13:29:16;17.02;;;2.65;;
47225;SDS011;32965;64.142;-21.912;2023-10-09T13:31:47;19.83;;;3.05;;
47225;SDS011;32965;64.142;-21.912;2023-10-09T13:34:14;18.58;;;2.95;;
47225;SDS011;32965;64.142;-21.912;2023-10-09T13:36:40;19.52;;;3.75;;
47225;SDS011;32965;64.142;-21.912;2023-10-09T13:39:14;13.40;;;2.42;;
47225;SDS011;32965;64.142;-21.912;2023-10-09T13:42:03;16.55;;;2.55;;
47225;SDS011;32965;64.142;-21.912;2023-10-09T13:44:32;18.27;;;2.58;;
47225;SDS011;32965;64.142;-21.912;2023-10-09T13:47:00;15.82;;;2.53;;
47225;SDS011;32965;64.142;-21.912;2023-10-09T13:49:30;14.75;;;2.78;;
47225;SDS011;32965;64.142;-21.912;2023-10-09T13:58:09;18.70;;;4.20;;
47225;SDS011;32965;64.142;-21.912;2023-10-09T14:00:45;16.83;;;3.53;;
47225;SDS011;32965;64.142;-21.912;2023-10-09T14:03:14;20.25;;;3.28;;
47225;SDS011;32965;64.142;-21.912;2023-10-09T14:05:44;10.93;;;2.38;;
47225;SDS011;32965;64.142;-21.912;2023-10-09T14:08:22;17.25;;;2.28;;
47225;SDS011;32965;64.142;-21.912;2023-10-09T14:10:49;19.33;;;2.30;;
47225;SDS011;32965;64.142;-21.912;2023-10-09T14:13:15;15.73;;;2.53;;
47225;SDS011;32965;64.142;-21.912;2023-10-09T14:15:43;17.13;;;2.92;;
47225;SDS011;32965;64.142;-21.912;2023-10-09T14:18:11;22.13;;;3.65;;
47225;SDS011;32965;64.142;-21.912;2023-10-09T14:20:37;22.50;;;3.63;;
47225;SDS011;32965;64.142;-21.912;2023-10-09T14:26:10;28.50;;;5.60;;
47225;SDS011;32965;64.142;-21.912;2023-10-09T14:28:38;23.08;;;4.50;;
47225;SDS011;32965;64.142;-21.912;2023-10-09T14:31:03;22.50;;;3.90;;
47225;SDS011;32965;64.142;-21.912;2023-10-09T14:33:36;16.58;;;2.97;;
47225;SDS011;32965;64.142;-21.912;2023-10-09T14:36:02;18.95;;;2.90;;
47225;SDS011;32965;64.142;-21.912;2023-10-09T14:38:30;10.45;;;2.20;;
47225;SDS011;32965;64.142;-21.912;2023-10-09T14:40:58;16.48;;;2.78;;
47225;SDS011;32965;64.142;-21.912;2023-10-09T14:43:25;15.48;;;2.58;;
47225;SDS011;32965;64.142;-21.912;2023-10-09T14:45:54;16.98;;;2.70;;
47225;SDS011;32965;64.142;-21.912;2023-10-09T14:48:20;16.50;;;2.70;;
47225;SDS011;32965;64.142;-21.912;2023-10-09T14:50:51;10.52;;;2.60;;
47225;SDS011;32965;64.142;-21.912;2023-10-09T14:53:18;21.63;;;3.15;;
47225;SDS011;32965;64.142;-21.912;2023-10-09T14:55:45;16.08;;;2.22;;
47225;SDS011;32965;64.142;-21.912;2023-10-09T14:58:13;18.95;;;2.47;;
47225;SDS011;32965;64.142;-21.912;2023-10-09T15:00:39;19.65;;;3.38;;
47225;SDS011;32965;64.142;-21.912;2023-10-09T15:03:14;14.27;;;2.35;;
47225;SDS011;32965;64.142;-21.912;2023-10-09T15:05:40;20.23;;;2.75;;
47225;SDS011;32965;64.142;-21.912;2023-10-09T15:08:07;17.58;;;2.47;;
47225;SDS011;32965;64.142;-21.912;2023-10-09T15:10:45;14.98;;;2.55;;
47225;SDS011;32965;64.142;-21.912;2023-10-09T15:13:16;18.85;;;3.10;;
47225;SDS011;32965;64.142;-21.912;2023-10-09T15:15:43;20.05;;;3.85;;
47225;SDS011;32965;64.142;-21.912;2023-10-09T15:18:10;22.90;;;3.78;;
47225;SDS011;32965;64.142;-21.912;2023-10-09T15:20:39;18.88;;;3.10;;
47225;SDS011;32965;64.142;-21.912;2023-10-09T15:23:08;28.25;;;3.53;;
47225;SDS011;32965;64.142;-21.912;2023-10-09T15:25:34;22.45;;;2.95;;
47225;SDS011;32965;64.142;-21.912;2023-10-09T15:28:04;22.13;;;3.95;;
47225;SDS011;32965;64.142;-21.912;2023-10-09T15:30:32;20.13;;;3.80;;
47225;SDS011;32965;64.142;-21.912;2023-10-09T15:32:59;15.40;;;3.35;;
47225;SDS011;32965;64.142;-21.912;2023-10-09T15:35:26;19.88;;;3.35;;
47225;SDS011;32965;64.142;-21.912;2023-10-09T15:37:59;12.48;;;2.45;;
47225;SDS011;32965;64.142;-21.912;2023-10-09T15:40:28;14.50;;;2.97;;
47225;SDS011;32965;64.142;-21.912;2023-10-09T15:42:58;14.60;;;3.22;;
47225;SDS011;32965;64.142;-21.912;2023-10-09T15:45:25;14.20;;;2.75;;
47225;SDS011;32965;64.142;-21.912;2023-10-09T15:47:53;22.75;;;3.97;;
47225;SDS011;32965;64.142;-21.912;2023-10-09T15:50:20;21.65;;;3.67;;
47225;SDS011;32965;64.142;-21.912;2023-10-09T15:58:49;20.65;;;3.10;;
47225;SDS011;32965;64.142;-21.912;2023-10-09T16:01:18;27.15;;;4.30;;
47225;SDS011;32965;64.142;-21.912;2023-10-09T16:03:45;17.75;;;4.07;;
47225;SDS011;32965;64.142;-21.912;2023-10-09T16:06:16;30.00;;;4.45;;
47225;SDS011;32965;64.142;-21.912;2023-10-09T16:08:44;16.63;;;3.67;;
47225;SDS011;32965;64.142;-21.912;2023-10-09T16:11:18;27.55;;;3.90;;
47225;SDS011;32965;64.142;-21.912;2023-10-09T16:13:48;27.67;;;3.53;;
47225;SDS011;32965;64.142;-21.912;2023-10-09T16:16:14;12.15;;;2.80;;
47225;SDS011;32965;64.142;-21.912;2023-10-09T16:18:41;20.58;;;4.38;;
47225;SDS011;32965;64.142;-21.912;2023-10-09T16:21:08;22.73;;;4.25;;
47225;SDS011;32965;64.142;-21.912;2023-10-09T16:27:06;18.73;;;3.25;;
47225;SDS011;32965;64.142;-21.912;2023-10-09T16:29:36;15.38;;;3.60;;
47225;SDS011;32965;64.142;-21.912;2023-10-09T16:32:03;25.92;;;4.40;;
47225;SDS011;32965;64.142;-21.912;2023-10-09T16:34:33;28.53;;;4.27;;
47225;SDS011;32965;64.142;-21.912;2023-10-09T16:36:59;32.50;;;4.70;;